Deerbrook, Wisconsin
Current Conditions -  °F | °C
As of 12:15 PM on Friday 28 Nov 2014 (Local Time) from KAIG Reporting Station
Light Snow Light Snow  
Wind Chill: -1°   Ceiling: 3400
Heat Index: 12°   Visibility: 1.5mi
Dew Point:   Wind: 9mph
Humidity: 87%   Direction: 130°SE
Pressure: 29.98"   Gusts: NA
Location:  45.23°N, 89.16°W
Report Text: KAIG 281815Z AUTO 13008KT 1 1/2SM -SN SCT025 OVC034 M11/M13 A2998 RMK AO2 T11121130
Loading
Personal Weather Stations






























Interactive Weather Map New forecast layout! Learn more

10-Day Weather Forecast

Advertisements
Track Severe Weather on mobile